aviador You're here:

LFSI Decoded Metar

ST.-DIZIER in FRANCE
Report Time2017-11-22 21:30:00
UTC Time2017-11-22 21:51:10
Flight Rules vfr VFR
Wind180° at 07 kt
W.Decomp.*RWY 11: 2.5 kt HW 6.5 kt RCW
W.Rank180° ranks 12
Current wind is above 180° avg. (5.5)
Visibility9999 m
Phenomena:N/A
Clouds:N/A
Expected CloudBase > 2,400 ft AGL from Temp-Dew spread
CeilingNone
Temp10°C (ISA -4)
Dew Point04°C (67% RH)
AAT6.2°C
QNH1007 hPa
Density Alt289 ft
Elevation459 ft
Report Wrong Elevation
Raw Report
LFSI 222130Z AUTO 18007KT CAVOK 10/04 Q1007=

Extra information for LFSI:More info

Metar Taf Metar & Taf Last 4 Metars F.Rules Stats Wind Profile Meteogram Temp Stats Airport Information Weather charts Add Link Nearby VenuesMetar ALERT Operation Metar Decoded Social comments